sensor_id;sensor_type;location;lat;lon;timestamp;P1;durP1;ratioP1;P2;durP2;ratioP2
31680;SDS011;18281;51.364;9.566;2023-01-28T00:01:21;1.50;;;1.10;;
31680;SDS011;18281;51.364;9.566;2023-01-28T00:03:50;3.45;;;1.38;;
31680;SDS011;18281;51.364;9.566;2023-01-28T00:06:16;2.08;;;1.17;;
31680;SDS011;18281;51.364;9.566;2023-01-28T00:08:42;3.45;;;1.20;;
31680;SDS011;18281;51.364;9.566;2023-01-28T00:11:09;1.65;;;0.90;;
31680;SDS011;18281;51.364;9.566;2023-01-28T00:13:36;1.52;;;1.00;;
31680;SDS011;18281;51.364;9.566;2023-01-28T00:16:04;2.25;;;1.20;;
31680;SDS011;18281;51.364;9.566;2023-01-28T00:18:32;2.53;;;1.10;;
31680;SDS011;18281;51.364;9.566;2023-01-28T00:20:58;1.80;;;1.05;;
31680;SDS011;18281;51.364;9.566;2023-01-28T00:23:30;3.05;;;1.15;;
31680;SDS011;18281;51.364;9.566;2023-01-28T00:25:57;2.00;;;1.27;;
31680;SDS011;18281;51.364;9.566;2023-01-28T00:28:23;1.20;;;1.00;;
31680;SDS011;18281;51.364;9.566;2023-01-28T00:30:49;2.70;;;1.05;;
31680;SDS011;18281;51.364;9.566;2023-01-28T00:33:14;1.83;;;1.27;;
31680;SDS011;18281;51.364;9.566;2023-01-28T00:35:39;3.45;;;0.90;;
31680;SDS011;18281;51.364;9.566;2023-01-28T00:38:05;2.42;;;0.90;;
31680;SDS011;18281;51.364;9.566;2023-01-28T00:40:31;1.70;;;1.05;;
31680;SDS011;18281;51.364;9.566;2023-01-28T00:42:56;2.70;;;1.00;;
31680;SDS011;18281;51.364;9.566;2023-01-28T00:45:22;2.95;;;0.80;;
31680;SDS011;18281;51.364;9.566;2023-01-28T00:47:47;2.85;;;0.98;;
31680;SDS011;18281;51.364;9.566;2023-01-28T00:50:13;3.20;;;0.75;;
31680;SDS011;18281;51.364;9.566;2023-01-28T00:52:39;2.10;;;1.10;;
31680;SDS011;18281;51.364;9.566;2023-01-28T00:55:04;3.33;;;0.70;;
31680;SDS011;18281;51.364;9.566;2023-01-28T00:57:30;0.55;;;0.55;;
31680;SDS011;18281;51.364;9.566;2023-01-28T00:59:56;1.27;;;0.68;;
31680;SDS011;18281;51.364;9.566;2023-01-28T01:02:21;0.80;;;0.80;;
31680;SDS011;18281;51.364;9.566;2023-01-28T01:04:47;1.35;;;0.80;;
31680;SDS011;18281;51.364;9.566;2023-01-28T01:07:26;1.45;;;0.60;;
31680;SDS011;18281;51.364;9.566;2023-01-28T01:10:06;3.85;;;0.80;;
31680;SDS011;18281;51.364;9.566;2023-01-28T01:12:33;1.45;;;0.80;;
31680;SDS011;18281;51.364;9.566;2023-01-28T01:14:58;1.42;;;0.88;;
31680;SDS011;18281;51.364;9.566;2023-01-28T01:17:24;3.03;;;0.93;;
31680;SDS011;18281;51.364;9.566;2023-01-28T01:19:49;3.08;;;0.85;;
31680;SDS011;18281;51.364;9.566;2023-01-28T01:22:14;1.25;;;0.50;;
31680;SDS011;18281;51.364;9.566;2023-01-28T01:24:40;1.63;;;1.13;;
31680;SDS011;18281;51.364;9.566;2023-01-28T01:27:05;0.77;;;0.77;;
31680;SDS011;18281;51.364;9.566;2023-01-28T01:29:31;1.50;;;0.80;;
31680;SDS011;18281;51.364;9.566;2023-01-28T01:31:57;1.88;;;0.93;;
31680;SDS011;18281;51.364;9.566;2023-01-28T01:34:23;2.15;;;0.77;;
31680;SDS011;18281;51.364;9.566;2023-01-28T01:36:49;0.75;;;0.70;;
31680;SDS011;18281;51.364;9.566;2023-01-28T01:39:14;1.80;;;0.90;;
31680;SDS011;18281;51.364;9.566;2023-01-28T01:41:40;2.50;;;0.98;;
31680;SDS011;18281;51.364;9.566;2023-01-28T01:44:05;1.30;;;0.80;;
31680;SDS011;18281;51.364;9.566;2023-01-28T01:46:39;2.05;;;0.95;;
31680;SDS011;18281;51.364;9.566;2023-01-28T01:49:18;1.60;;;0.68;;
31680;SDS011;18281;51.364;9.566;2023-01-28T01:51:46;3.35;;;0.95;;
31680;SDS011;18281;51.364;9.566;2023-01-28T01:54:15;1.27;;;0.68;;
31680;SDS011;18281;51.364;9.566;2023-01-28T01:56:43;2.65;;;1.05;;
31680;SDS011;18281;51.364;9.566;2023-01-28T01:59:14;0.82;;;0.80;;
31680;SDS011;18281;51.364;9.566;2023-01-28T02:01:46;2.75;;;0.82;;
31680;SDS011;18281;51.364;9.566;2023-01-28T02:04:18;2.10;;;0.90;;
31680;SDS011;18281;51.364;9.566;2023-01-28T02:06:46;1.77;;;0.73;;
31680;SDS011;18281;51.364;9.566;2023-01-28T02:09:28;1.30;;;1.20;;
31680;SDS011;18281;51.364;9.566;2023-01-28T02:14:35;2.30;;;1.10;;
31680;SDS011;18281;51.364;9.566;2023-01-28T02:17:06;1.70;;;1.23;;
31680;SDS011;18281;51.364;9.566;2023-01-28T02:19:49;5.20;;;1.10;;
31680;SDS011;18281;51.364;9.566;2023-01-28T02:33:33;2.65;;;1.70;;
31680;SDS011;18281;51.364;9.566;2023-01-28T02:38:49;1.77;;;1.30;;
31680;SDS011;18281;51.364;9.566;2023-01-28T02:41:28;2.97;;;1.30;;
31680;SDS011;18281;51.364;9.566;2023-01-28T02:44:02;3.15;;;1.13;;
31680;SDS011;18281;51.364;9.566;2023-01-28T02:49:16;2.75;;;1.25;;
31680;SDS011;18281;51.364;9.566;2023-01-28T02:54:40;2.10;;;1.10;;
31680;SDS011;18281;51.364;9.566;2023-01-28T02:57:24;1.58;;;1.00;;
31680;SDS011;18281;51.364;9.566;2023-01-28T03:03:06;1.02;;;0.95;;
31680;SDS011;18281;51.364;9.566;2023-01-28T03:05:39;3.03;;;1.30;;
31680;SDS011;18281;51.364;9.566;2023-01-28T03:08:27;4.53;;;1.25;;
31680;SDS011;18281;51.364;9.566;2023-01-28T03:11:17;1.27;;;0.98;;
31680;SDS011;18281;51.364;9.566;2023-01-28T03:14:01;3.00;;;1.15;;
31680;SDS011;18281;51.364;9.566;2023-01-28T03:16:45;3.30;;;0.90;;
31680;SDS011;18281;51.364;9.566;2023-01-28T03:19:30;2.40;;;1.20;;
31680;SDS011;18281;51.364;9.566;2023-01-28T03:22:14;5.05;;;1.38;;
31680;SDS011;18281;51.364;9.566;2023-01-28T03:24:59;1.85;;;0.85;;
31680;SDS011;18281;51.364;9.566;2023-01-28T03:27:53;1.40;;;0.80;;
31680;SDS011;18281;51.364;9.566;2023-01-28T03:30:46;1.10;;;1.00;;
31680;SDS011;18281;51.364;9.566;2023-01-28T03:33:37;3.03;;;1.10;;
31680;SDS011;18281;51.364;9.566;2023-01-28T03:36:23;1.38;;;0.85;;
31680;SDS011;18281;51.364;9.566;2023-01-28T03:39:07;1.08;;;0.70;;
31680;SDS011;18281;51.364;9.566;2023-01-28T03:41:33;2.05;;;0.85;;
31680;SDS011;18281;51.364;9.566;2023-01-28T03:43:58;1.73;;;0.70;;
31680;SDS011;18281;51.364;9.566;2023-01-28T03:46:42;3.78;;;0.80;;
31680;SDS011;18281;51.364;9.566;2023-01-28T03:49:07;1.67;;;1.00;;
31680;SDS011;18281;51.364;9.566;2023-01-28T03:51:32;1.83;;;0.77;;
31680;SDS011;18281;51.364;9.566;2023-01-28T03:53:58;0.75;;;0.55;;
31680;SDS011;18281;51.364;9.566;2023-01-28T03:56:23;2.55;;;0.95;;
31680;SDS011;18281;51.364;9.566;2023-01-28T03:58:50;2.85;;;1.05;;
31680;SDS011;18281;51.364;9.566;2023-01-28T04:01:20;1.05;;;0.60;;
31680;SDS011;18281;51.364;9.566;2023-01-28T04:03:46;3.63;;;0.80;;
31680;SDS011;18281;51.364;9.566;2023-01-28T04:06:11;2.45;;;0.70;;
31680;SDS011;18281;51.364;9.566;2023-01-28T04:08:36;1.40;;;0.77;;
31680;SDS011;18281;51.364;9.566;2023-01-28T04:11:02;0.75;;;0.73;;
31680;SDS011;18281;51.364;9.566;2023-01-28T04:13:42;2.97;;;0.68;;
31680;SDS011;18281;51.364;9.566;2023-01-28T04:16:08;1.45;;;0.73;;
31680;SDS011;18281;51.364;9.566;2023-01-28T04:18:35;1.85;;;0.60;;
31680;SDS011;18281;51.364;9.566;2023-01-28T04:21:00;0.90;;;0.57;;
31680;SDS011;18281;51.364;9.566;2023-01-28T04:23:26;0.90;;;0.65;;
31680;SDS011;18281;51.364;9.566;2023-01-28T04:25:53;2.47;;;0.68;;
31680;SDS011;18281;51.364;9.566;2023-01-28T04:28:19;0.73;;;0.43;;
31680;SDS011;18281;51.364;9.566;2023-01-28T04:30:44;1.13;;;0.68;;
31680;SDS011;18281;51.364;9.566;2023-01-28T04:33:09;3.65;;;0.70;;
31680;SDS011;18281;51.364;9.566;2023-01-28T04:35:35;1.98;;;0.57;;
31680;SDS011;18281;51.364;9.566;2023-01-28T04:38:00;0.70;;;0.63;;
31680;SDS011;18281;51.364;9.566;2023-01-28T04:40:26;0.68;;;0.60;;
31680;SDS011;18281;51.364;9.566;2023-01-28T04:42:52;1.10;;;0.90;;
31680;SDS011;18281;51.364;9.566;2023-01-28T04:45:18;3.17;;;0.65;;
31680;SDS011;18281;51.364;9.566;2023-01-28T04:47:43;1.70;;;0.55;;
31680;SDS011;18281;51.364;9.566;2023-01-28T04:50:09;2.70;;;0.50;;
31680;SDS011;18281;51.364;9.566;2023-01-28T04:52:34;1.27;;;0.80;;
31680;SDS011;18281;51.364;9.566;2023-01-28T04:54:59;1.70;;;0.70;;
31680;SDS011;18281;51.364;9.566;2023-01-28T04:57:26;1.17;;;0.50;;
31680;SDS011;18281;51.364;9.566;2023-01-28T04:59:51;1.15;;;0.80;;
31680;SDS011;18281;51.364;9.566;2023-01-28T05:02:16;2.05;;;0.50;;
31680;SDS011;18281;51.364;9.566;2023-01-28T05:04:42;0.40;;;0.40;;
31680;SDS011;18281;51.364;9.566;2023-01-28T05:07:07;1.60;;;0.60;;
31680;SDS011;18281;51.364;9.566;2023-01-28T05:09:32;2.28;;;0.60;;
31680;SDS011;18281;51.364;9.566;2023-01-28T05:11:58;1.38;;;0.60;;
31680;SDS011;18281;51.364;9.566;2023-01-28T05:14:23;3.22;;;0.75;;
31680;SDS011;18281;51.364;9.566;2023-01-28T05:16:49;0.85;;;0.70;;
31680;SDS011;18281;51.364;9.566;2023-01-28T05:19:14;1.27;;;0.70;;
31680;SDS011;18281;51.364;9.566;2023-01-28T05:21:40;2.95;;;0.60;;
31680;SDS011;18281;51.364;9.566;2023-01-28T05:24:05;0.63;;;0.63;;
31680;SDS011;18281;51.364;9.566;2023-01-28T05:26:31;1.08;;;0.60;;
31680;SDS011;18281;51.364;9.566;2023-01-28T05:28:56;1.55;;;0.95;;
31680;SDS011;18281;51.364;9.566;2023-01-28T05:31:21;1.70;;;0.70;;
31680;SDS011;18281;51.364;9.566;2023-01-28T05:33:47;2.00;;;0.90;;
31680;SDS011;18281;51.364;9.566;2023-01-28T05:36:12;1.77;;;0.60;;
31680;SDS011;18281;51.364;9.566;2023-01-28T05:38:37;2.42;;;0.90;;
31680;SDS011;18281;51.364;9.566;2023-01-28T05:41:03;1.77;;;1.10;;
31680;SDS011;18281;51.364;9.566;2023-01-28T05:43:28;0.90;;;0.80;;
31680;SDS011;18281;51.364;9.566;2023-01-28T05:45:54;1.00;;;0.77;;
31680;SDS011;18281;51.364;9.566;2023-01-28T05:48:19;2.05;;;0.90;;
31680;SDS011;18281;51.364;9.566;2023-01-28T05:50:47;1.10;;;1.00;;
31680;SDS011;18281;51.364;9.566;2023-01-28T05:53:13;3.83;;;1.17;;
31680;SDS011;18281;51.364;9.566;2023-01-28T05:55:38;1.30;;;0.95;;
31680;SDS011;18281;51.364;9.566;2023-01-28T05:58:03;1.63;;;0.90;;
31680;SDS011;18281;51.364;9.566;2023-01-28T06:00:29;3.63;;;0.88;;
31680;SDS011;18281;51.364;9.566;2023-01-28T06:02:54;1.58;;;0.82;;
31680;SDS011;18281;51.364;9.566;2023-01-28T06:05:19;1.48;;;1.00;;
31680;SDS011;18281;51.364;9.566;2023-01-28T06:07:45;1.70;;;0.90;;
31680;SDS011;18281;51.364;9.566;2023-01-28T06:10:11;4.60;;;1.23;;
31680;SDS011;18281;51.364;9.566;2023-01-28T06:12:37;0.98;;;0.98;;
31680;SDS011;18281;51.364;9.566;2023-01-28T06:15:03;1.80;;;1.10;;
31680;SDS011;18281;51.364;9.566;2023-01-28T06:17:29;1.65;;;1.05;;
31680;SDS011;18281;51.364;9.566;2023-01-28T06:19:54;1.77;;;1.10;;
31680;SDS011;18281;51.364;9.566;2023-01-28T06:22:20;2.72;;;1.02;;
31680;SDS011;18281;51.364;9.566;2023-01-28T06:24:45;1.10;;;1.00;;
31680;SDS011;18281;51.364;9.566;2023-01-28T06:27:10;2.78;;;1.38;;
31680;SDS011;18281;51.364;9.566;2023-01-28T06:29:36;1.27;;;0.93;;
31680;SDS011;18281;51.364;9.566;2023-01-28T06:32:01;1.70;;;0.90;;
31680;SDS011;18281;51.364;9.566;2023-01-28T06:34:26;3.65;;;1.17;;
31680;SDS011;18281;51.364;9.566;2023-01-28T06:36:52;1.17;;;1.08;;
31680;SDS011;18281;51.364;9.566;2023-01-28T06:39:18;1.30;;;1.20;;
31680;SDS011;18281;51.364;9.566;2023-01-28T06:41:45;2.60;;;1.30;;
31680;SDS011;18281;51.364;9.566;2023-01-28T06:44:11;3.25;;;1.85;;
31680;SDS011;18281;51.364;9.566;2023-01-28T06:46:36;1.95;;;1.10;;
31680;SDS011;18281;51.364;9.566;2023-01-28T06:49:01;3.30;;;1.27;;
31680;SDS011;18281;51.364;9.566;2023-01-28T06:51:27;1.88;;;1.42;;
31680;SDS011;18281;51.364;9.566;2023-01-28T06:53:52;1.60;;;1.50;;
31680;SDS011;18281;51.364;9.566;2023-01-28T06:56:17;1.80;;;1.38;;
31680;SDS011;18281;51.364;9.566;2023-01-28T06:58:42;5.00;;;2.10;;
31680;SDS011;18281;51.364;9.566;2023-01-28T07:01:08;4.53;;;1.52;;
31680;SDS011;18281;51.364;9.566;2023-01-28T07:03:33;2.35;;;1.25;;
31680;SDS011;18281;51.364;9.566;2023-01-28T07:05:58;4.32;;;1.50;;
31680;SDS011;18281;51.364;9.566;2023-01-28T07:08:24;3.38;;;1.65;;
31680;SDS011;18281;51.364;9.566;2023-01-28T07:10:49;7.13;;;1.77;;
31680;SDS011;18281;51.364;9.566;2023-01-28T07:13:14;1.60;;;1.23;;
31680;SDS011;18281;51.364;9.566;2023-01-28T07:15:40;1.73;;;1.00;;
31680;SDS011;18281;51.364;9.566;2023-01-28T07:18:05;2.35;;;1.50;;
31680;SDS011;18281;51.364;9.566;2023-01-28T07:20:31;5.22;;;1.25;;
31680;SDS011;18281;51.364;9.566;2023-01-28T07:22:56;2.95;;;1.20;;
31680;SDS011;18281;51.364;9.566;2023-01-28T07:25:21;2.20;;;1.40;;
31680;SDS011;18281;51.364;9.566;2023-01-28T07:27:50;6.00;;;1.52;;
31680;SDS011;18281;51.364;9.566;2023-01-28T07:30:17;2.28;;;1.50;;
31680;SDS011;18281;51.364;9.566;2023-01-28T07:32:44;2.28;;;1.40;;
31680;SDS011;18281;51.364;9.566;2023-01-28T07:35:10;1.75;;;1.33;;
31680;SDS011;18281;51.364;9.566;2023-01-28T07:37:35;1.92;;;1.40;;
31680;SDS011;18281;51.364;9.566;2023-01-28T07:40:01;1.85;;;1.27;;
31680;SDS011;18281;51.364;9.566;2023-01-28T07:42:26;1.33;;;1.23;;
31680;SDS011;18281;51.364;9.566;2023-01-28T07:44:52;1.77;;;1.45;;
31680;SDS011;18281;51.364;9.566;2023-01-28T07:47:17;2.10;;;1.40;;
31680;SDS011;18281;51.364;9.566;2023-01-28T07:49:43;2.90;;;1.50;;
31680;SDS011;18281;51.364;9.566;2023-01-28T07:52:08;2.75;;;1.60;;
31680;SDS011;18281;51.364;9.566;2023-01-28T07:54:34;2.17;;;1.50;;
31680;SDS011;18281;51.364;9.566;2023-01-28T07:56:59;1.70;;;1.35;;
31680;SDS011;18281;51.364;9.566;2023-01-28T07:59:24;1.65;;;1.40;;
31680;SDS011;18281;51.364;9.566;2023-01-28T08:01:50;2.88;;;1.80;;
31680;SDS011;18281;51.364;9.566;2023-01-28T08:04:15;1.65;;;1.48;;
31680;SDS011;18281;51.364;9.566;2023-01-28T08:06:40;1.42;;;1.33;;
31680;SDS011;18281;51.364;9.566;2023-01-28T08:09:06;1.23;;;1.13;;
31680;SDS011;18281;51.364;9.566;2023-01-28T08:11:36;2.80;;;1.50;;
31680;SDS011;18281;51.364;9.566;2023-01-28T08:14:02;1.40;;;1.30;;
31680;SDS011;18281;51.364;9.566;2023-01-28T08:16:28;3.58;;;1.60;;
31680;SDS011;18281;51.364;9.566;2023-01-28T08:18:54;1.73;;;1.17;;
31680;SDS011;18281;51.364;9.566;2023-01-28T08:21:19;3.28;;;1.20;;
31680;SDS011;18281;51.364;9.566;2023-01-28T08:23:45;1.77;;;1.27;;
31680;SDS011;18281;51.364;9.566;2023-01-28T08:26:10;2.47;;;1.20;;
31680;SDS011;18281;51.364;9.566;2023-01-28T08:28:35;2.10;;;1.50;;
31680;SDS011;18281;51.364;9.566;2023-01-28T08:31:01;2.95;;;1.67;;
31680;SDS011;18281;51.364;9.566;2023-01-28T08:33:26;5.25;;;1.52;;
31680;SDS011;18281;51.364;9.566;2023-01-28T08:35:52;1.55;;;1.42;;
31680;SDS011;18281;51.364;9.566;2023-01-28T08:38:17;1.08;;;0.98;;
31680;SDS011;18281;51.364;9.566;2023-01-28T08:40:44;2.15;;;1.35;;
31680;SDS011;18281;51.364;9.566;2023-01-28T08:43:10;3.13;;;1.30;;
31680;SDS011;18281;51.364;9.566;2023-01-28T08:45:36;5.40;;;1.48;;
31680;SDS011;18281;51.364;9.566;2023-01-28T08:48:04;1.92;;;1.20;;
31680;SDS011;18281;51.364;9.566;2023-01-28T08:50:35;6.15;;;1.30;;
31680;SDS011;18281;51.364;9.566;2023-01-28T08:53:05;4.88;;;1.30;;
31680;SDS011;18281;51.364;9.566;2023-01-28T08:55:32;5.15;;;1.20;;
31680;SDS011;18281;51.364;9.566;2023-01-28T08:58:02;5.55;;;1.27;;
31680;SDS011;18281;51.364;9.566;2023-01-28T09:00:31;3.55;;;1.17;;
31680;SDS011;18281;51.364;9.566;2023-01-28T09:02:58;4.68;;;1.27;;
31680;SDS011;18281;51.364;9.566;2023-01-28T09:05:23;2.53;;;1.55;;
31680;SDS011;18281;51.364;9.566;2023-01-28T09:07:48;2.05;;;1.40;;
31680;SDS011;18281;51.364;9.566;2023-01-28T09:10:15;2.75;;;1.50;;
31680;SDS011;18281;51.364;9.566;2023-01-28T09:12:41;4.10;;;2.38;;
31680;SDS011;18281;51.364;9.566;2023-01-28T09:15:07;6.80;;;3.20;;
31680;SDS011;18281;51.364;9.566;2023-01-28T09:17:33;4.35;;;2.20;;
31680;SDS011;18281;51.364;9.566;2023-01-28T09:19:58;3.75;;;2.13;;
31680;SDS011;18281;51.364;9.566;2023-01-28T09:22:24;3.20;;;2.28;;
31680;SDS011;18281;51.364;9.566;2023-01-28T09:24:49;2.67;;;1.88;;
31680;SDS011;18281;51.364;9.566;2023-01-28T09:27:15;2.72;;;1.92;;
31680;SDS011;18281;51.364;9.566;2023-01-28T09:29:40;4.10;;;1.70;;
31680;SDS011;18281;51.364;9.566;2023-01-28T09:32:06;3.65;;;1.58;;
31680;SDS011;18281;51.364;9.566;2023-01-28T09:34:31;2.20;;;1.50;;
31680;SDS011;18281;51.364;9.566;2023-01-28T09:36:57;1.75;;;1.50;;
31680;SDS011;18281;51.364;9.566;2023-01-28T09:39:22;1.65;;;1.23;;
31680;SDS011;18281;51.364;9.566;2023-01-28T09:50:36;4.03;;;1.80;;
31680;SDS011;18281;51.364;9.566;2023-01-28T09:55:57;3.08;;;1.90;;
31680;SDS011;18281;51.364;9.566;2023-01-28T09:58:26;4.22;;;1.60;;
31680;SDS011;18281;51.364;9.566;2023-01-28T10:06:25;3.67;;;1.88;;
31680;SDS011;18281;51.364;9.566;2023-01-28T10:17:12;5.60;;;3.30;;
31680;SDS011;18281;51.364;9.566;2023-01-28T10:22:31;3.22;;;2.30;;
31680;SDS011;18281;51.364;9.566;2023-01-28T10:25:02;2.35;;;2.00;;
31680;SDS011;18281;51.364;9.566;2023-01-28T10:27:32;3.78;;;2.10;;
31680;SDS011;18281;51.364;9.566;2023-01-28T10:30:07;3.67;;;2.30;;
31680;SDS011;18281;51.364;9.566;2023-01-28T10:32:43;2.97;;;2.00;;
31680;SDS011;18281;51.364;9.566;2023-01-28T10:35:14;2.65;;;2.05;;
31680;SDS011;18281;51.364;9.566;2023-01-28T10:37:39;3.63;;;1.85;;
31680;SDS011;18281;51.364;9.566;2023-01-28T10:40:05;3.65;;;1.83;;
31680;SDS011;18281;51.364;9.566;2023-01-28T10:42:37;3.65;;;2.10;;
31680;SDS011;18281;51.364;9.566;2023-01-28T10:45:17;2.38;;;2.17;;
31680;SDS011;18281;51.364;9.566;2023-01-28T10:47:55;3.50;;;2.65;;
31680;SDS011;18281;51.364;9.566;2023-01-28T10:52:56;3.38;;;2.95;;
31680;SDS011;18281;51.364;9.566;2023-01-28T10:55:23;3.53;;;3.00;;
31680;SDS011;18281;51.364;9.566;2023-01-28T11:02:48;3.53;;;3.08;;
31680;SDS011;18281;51.364;9.566;2023-01-28T11:05:15;3.42;;;3.10;;
31680;SDS011;18281;51.364;9.566;2023-01-28T11:07:41;10.32;;;5.97;;
31680;SDS011;18281;51.364;9.566;2023-01-28T11:10:23;8.43;;;5.78;;
31680;SDS011;18281;51.364;9.566;2023-01-28T11:12:58;8.05;;;5.00;;
31680;SDS011;18281;51.364;9.566;2023-01-28T11:15:25;7.40;;;4.43;;
31680;SDS011;18281;51.364;9.566;2023-01-28T11:18:02;10.32;;;4.28;;
31680;SDS011;18281;51.364;9.566;2023-01-28T11:20:41;6.47;;;3.97;;
31680;SDS011;18281;51.364;9.566;2023-01-28T11:26:26;4.40;;;2.90;;
31680;SDS011;18281;51.364;9.566;2023-01-28T11:28:54;4.43;;;2.83;;
31680;SDS011;18281;51.364;9.566;2023-01-28T11:31:20;3.88;;;2.92;;
31680;SDS011;18281;51.364;9.566;2023-01-28T11:33:52;3.55;;;2.47;;
31680;SDS011;18281;51.364;9.566;2023-01-28T11:36:25;4.65;;;3.08;;
31680;SDS011;18281;51.364;9.566;2023-01-28T11:38:53;3.53;;;2.83;;
31680;SDS011;18281;51.364;9.566;2023-01-28T11:44:00;7.10;;;2.42;;
31680;SDS011;18281;51.364;9.566;2023-01-28T11:50:28;3.55;;;2.78;;
31680;SDS011;18281;51.364;9.566;2023-01-28T11:57:41;3.97;;;2.10;;
31680;SDS011;18281;51.364;9.566;2023-01-28T12:08:50;4.95;;;2.15;;
31680;SDS011;18281;51.364;9.566;2023-01-28T12:14:51;2.92;;;1.95;;
31680;SDS011;18281;51.364;9.566;2023-01-28T12:26:01;1.80;;;1.65;;
31680;SDS011;18281;51.364;9.566;2023-01-28T12:37:27;2.53;;;1.33;;
31680;SDS011;18281;51.364;9.566;2023-01-28T12:43:12;4.75;;;1.30;;
31680;SDS011;18281;51.364;9.566;2023-01-28T12:45:50;3.53;;;1.30;;
31680;SDS011;18281;51.364;9.566;2023-01-28T12:48:36;4.15;;;2.10;;
31680;SDS011;18281;51.364;9.566;2023-01-28T12:51:10;3.92;;;1.20;;
31680;SDS011;18281;51.364;9.566;2023-01-28T12:56:08;4.00;;;1.50;;
31680;SDS011;18281;51.364;9.566;2023-01-28T13:01:29;5.70;;;1.95;;
31680;SDS011;18281;51.364;9.566;2023-01-28T13:04:05;1.67;;;1.02;;
31680;SDS011;18281;51.364;9.566;2023-01-28T13:06:41;2.95;;;1.77;;
31680;SDS011;18281;51.364;9.566;2023-01-28T13:09:19;3.03;;;1.17;;
31680;SDS011;18281;51.364;9.566;2023-01-28T13:11:47;1.60;;;0.85;;
31680;SDS011;18281;51.364;9.566;2023-01-28T13:14:15;1.48;;;0.90;;
31680;SDS011;18281;51.364;9.566;2023-01-28T13:16:41;2.08;;;0.98;;
31680;SDS011;18281;51.364;9.566;2023-01-28T13:19:08;2.10;;;0.80;;
31680;SDS011;18281;51.364;9.566;2023-01-28T13:21:46;1.55;;;0.60;;
31680;SDS011;18281;51.364;9.566;2023-01-28T13:26:43;0.70;;;0.63;;
31680;SDS011;18281;51.364;9.566;2023-01-28T13:31:42;2.92;;;1.00;;
31680;SDS011;18281;51.364;9.566;2023-01-28T13:34:24;0.88;;;0.70;;
31680;SDS011;18281;51.364;9.566;2023-01-28T13:36:54;1.55;;;1.00;;
31680;SDS011;18281;51.364;9.566;2023-01-28T13:39:21;3.00;;;0.77;;
31680;SDS011;18281;51.364;9.566;2023-01-28T13:41:50;1.80;;;0.88;;
31680;SDS011;18281;51.364;9.566;2023-01-28T13:47:11;0.98;;;0.70;;
31680;SDS011;18281;51.364;9.566;2023-01-28T13:49:46;1.67;;;0.63;;
31680;SDS011;18281;51.364;9.566;2023-01-28T14:03:30;2.00;;;0.85;;
31680;SDS011;18281;51.364;9.566;2023-01-28T14:06:31;2.50;;;1.60;;
31680;SDS011;18281;51.364;9.566;2023-01-28T14:09:19;3.05;;;1.17;;
31680;SDS011;18281;51.364;9.566;2023-01-28T14:14:27;2.03;;;1.60;;
31680;SDS011;18281;51.364;9.566;2023-01-28T14:17:19;5.10;;;2.03;;
31680;SDS011;18281;51.364;9.566;2023-01-28T14:19:52;3.80;;;1.80;;
31680;SDS011;18281;51.364;9.566;2023-01-28T14:22:19;3.17;;;1.65;;
31680;SDS011;18281;51.364;9.566;2023-01-28T14:24:45;3.47;;;1.92;;
31680;SDS011;18281;51.364;9.566;2023-01-28T14:30:01;1.67;;;1.33;;
31680;SDS011;18281;51.364;9.566;2023-01-28T14:32:32;3.65;;;1.50;;
31680;SDS011;18281;51.364;9.566;2023-01-28T14:35:00;2.35;;;1.40;;
31680;SDS011;18281;51.364;9.566;2023-01-28T14:37:31;3.88;;;1.30;;
31680;SDS011;18281;51.364;9.566;2023-01-28T14:39:58;2.45;;;1.20;;
31680;SDS011;18281;51.364;9.566;2023-01-28T14:42:26;2.10;;;0.98;;
31680;SDS011;18281;51.364;9.566;2023-01-28T14:48:10;1.23;;;0.90;;
31680;SDS011;18281;51.364;9.566;2023-01-28T14:58:43;3.17;;;1.10;;
31680;SDS011;18281;51.364;9.566;2023-01-28T15:01:30;3.10;;;1.90;;
31680;SDS011;18281;51.364;9.566;2023-01-28T15:03:56;9.93;;;3.08;;
31680;SDS011;18281;51.364;9.566;2023-01-28T15:06:29;3.63;;;1.73;;
31680;SDS011;18281;51.364;9.566;2023-01-28T15:09:08;3.03;;;0.80;;
31680;SDS011;18281;51.364;9.566;2023-01-28T15:11:37;2.95;;;0.98;;
31680;SDS011;18281;51.364;9.566;2023-01-28T15:14:07;1.73;;;0.82;;
31680;SDS011;18281;51.364;9.566;2023-01-28T15:16:40;3.83;;;1.13;;
31680;SDS011;18281;51.364;9.566;2023-01-28T15:19:11;0.68;;;0.60;;
31680;SDS011;18281;51.364;9.566;2023-01-28T15:21:36;0.68;;;0.68;;
31680;SDS011;18281;51.364;9.566;2023-01-28T15:24:03;3.58;;;0.60;;
31680;SDS011;18281;51.364;9.566;2023-01-28T15:26:32;3.22;;;0.50;;
31680;SDS011;18281;51.364;9.566;2023-01-28T15:28:58;0.75;;;0.50;;
31680;SDS011;18281;51.364;9.566;2023-01-28T15:31:26;1.30;;;0.77;;
31680;SDS011;18281;51.364;9.566;2023-01-28T15:34:00;2.85;;;0.57;;
31680;SDS011;18281;51.364;9.566;2023-01-28T15:36:28;2.13;;;0.45;;
31680;SDS011;18281;51.364;9.566;2023-01-28T15:38:55;2.22;;;0.80;;
31680;SDS011;18281;51.364;9.566;2023-01-28T15:41:22;2.50;;;1.00;;
31680;SDS011;18281;51.364;9.566;2023-01-28T15:43:51;1.58;;;0.75;;
31680;SDS011;18281;51.364;9.566;2023-01-28T15:46:17;0.95;;;0.70;;
31680;SDS011;18281;51.364;9.566;2023-01-28T15:48:44;2.08;;;1.08;;
31680;SDS011;18281;51.364;9.566;2023-01-28T15:51:16;1.40;;;1.15;;
31680;SDS011;18281;51.364;9.566;2023-01-28T15:53:45;3.05;;;1.30;;
31680;SDS011;18281;51.364;9.566;2023-01-28T15:56:14;1.63;;;1.17;;
31680;SDS011;18281;51.364;9.566;2023-01-28T15:58:40;3.95;;;1.52;;
31680;SDS011;18281;51.364;9.566;2023-01-28T16:03:34;2.55;;;1.45;;
31680;SDS011;18281;51.364;9.566;2023-01-28T16:06:13;4.53;;;1.48;;
31680;SDS011;18281;51.364;9.566;2023-01-28T16:11:20;2.03;;;1.20;;
31680;SDS011;18281;51.364;9.566;2023-01-28T16:13:48;2.75;;;1.25;;
31680;SDS011;18281;51.364;9.566;2023-01-28T16:16:13;1.58;;;1.35;;
31680;SDS011;18281;51.364;9.566;2023-01-28T16:21:08;2.17;;;1.40;;
31680;SDS011;18281;51.364;9.566;2023-01-28T16:23:36;3.40;;;1.88;;
31680;SDS011;18281;51.364;9.566;2023-01-28T16:26:18;3.92;;;1.33;;
31680;SDS011;18281;51.364;9.566;2023-01-28T16:28:48;1.80;;;1.20;;
31680;SDS011;18281;51.364;9.566;2023-01-28T16:31:14;2.78;;;1.10;;
31680;SDS011;18281;51.364;9.566;2023-01-28T16:33:40;1.33;;;0.90;;
31680;SDS011;18281;51.364;9.566;2023-01-28T16:36:07;1.42;;;1.27;;
31680;SDS011;18281;51.364;9.566;2023-01-28T16:38:34;3.22;;;1.27;;
31680;SDS011;18281;51.364;9.566;2023-01-28T16:40:59;2.55;;;1.50;;
31680;SDS011;18281;51.364;9.566;2023-01-28T16:43:25;1.65;;;1.27;;
31680;SDS011;18281;51.364;9.566;2023-01-28T16:45:50;1.40;;;1.20;;
31680;SDS011;18281;51.364;9.566;2023-01-28T16:48:15;1.25;;;1.15;;
31680;SDS011;18281;51.364;9.566;2023-01-28T16:50:41;2.22;;;1.30;;
31680;SDS011;18281;51.364;9.566;2023-01-28T16:53:14;3.35;;;1.40;;
31680;SDS011;18281;51.364;9.566;2023-01-28T16:55:47;3.15;;;2.08;;
31680;SDS011;18281;51.364;9.566;2023-01-28T16:58:14;21.25;;;9.10;;
31680;SDS011;18281;51.364;9.566;2023-01-28T17:00:41;10.60;;;5.38;;
31680;SDS011;18281;51.364;9.566;2023-01-28T17:03:06;8.07;;;3.78;;
31680;SDS011;18281;51.364;9.566;2023-01-28T17:05:32;5.78;;;2.22;;
31680;SDS011;18281;51.364;9.566;2023-01-28T17:07:57;2.13;;;1.70;;
31680;SDS011;18281;51.364;9.566;2023-01-28T17:10:23;4.10;;;1.73;;
31680;SDS011;18281;51.364;9.566;2023-01-28T17:12:49;5.63;;;2.10;;
31680;SDS011;18281;51.364;9.566;2023-01-28T17:15:14;3.63;;;2.00;;
31680;SDS011;18281;51.364;9.566;2023-01-28T17:17:39;2.83;;;1.73;;
31680;SDS011;18281;51.364;9.566;2023-01-28T17:20:05;3.55;;;1.88;;
31680;SDS011;18281;51.364;9.566;2023-01-28T17:22:31;4.63;;;1.92;;
31680;SDS011;18281;51.364;9.566;2023-01-28T17:24:56;1.95;;;1.83;;
31680;SDS011;18281;51.364;9.566;2023-01-28T17:27:21;6.28;;;2.08;;
31680;SDS011;18281;51.364;9.566;2023-01-28T17:29:46;2.42;;;2.00;;
31680;SDS011;18281;51.364;9.566;2023-01-28T17:32:12;4.20;;;2.22;;
31680;SDS011;18281;51.364;9.566;2023-01-28T17:34:37;4.85;;;2.17;;